Time;durP1;ratioP1;P1;durP2;ratioP2;P2;SDS_P1;SDS_P2;PMS_P1;PMS_P2;Temp;Humidity;BMP_temperature;BMP_pressure;BME280_temperature;BME280_humidity;BME280_pressure;Samples;Min_cycle;Max_cycle;Signal;HPM_P1;HPM_P2
2021/09/24 00:01:01;;;;;;;5.55;2.00;;;16.80;99.90;;;;;;5031056;28;20032;-83
2021/09/24 00:03:26;;;;;;;4.35;1.98;;;16.70;99.90;;;;;;5018525;28;20037;-83
2021/09/24 00:05:52;;;;;;;5.35;2.10;;;16.70;99.90;;;;;;5029102;28;20378;-83
2021/09/24 00:08:19;;;;;;;4.55;2.00;;;16.70;99.90;;;;;;5024220;28;20033;-83
2021/09/24 00:10:45;;;;;;;7.97;1.83;;;16.70;99.90;;;;;;5022779;28;20145;-84
2021/09/24 00:13:12;;;;;;;8.02;2.20;;;16.70;99.90;;;;;;5032465;28;20079;-83
2021/09/24 00:15:37;;;;;;;7.45;1.95;;;16.70;99.90;;;;;;5018806;28;20108;-84
2021/09/24 00:18:04;;;;;;;3.95;1.70;;;16.70;99.90;;;;;;5034095;28;20176;-83
2021/09/24 00:20:30;;;;;;;7.88;2.20;;;16.70;99.90;;;;;;5029301;28;20112;-84
2021/09/24 00:22:56;;;;;;;4.78;1.80;;;16.70;99.90;;;;;;5023373;28;20112;-83
2021/09/24 00:25:22;;;;;;;4.07;2.33;;;16.60;99.90;;;;;;5016558;28;20425;-83
2021/09/24 00:27:47;;;;;;;6.07;2.30;;;16.60;99.90;;;;;;5040776;28;20083;-83
2021/09/24 00:30:15;;;;;;;7.55;2.78;;;16.60;99.90;;;;;;5028890;28;20033;-83
2021/09/24 00:32:40;;;;;;;5.50;1.85;;;16.60;99.90;;;;;;5029766;28;20029;-83
2021/09/24 00:35:07;;;;;;;5.90;2.30;;;16.60;99.90;;;;;;5021669;28;20033;-83
2021/09/24 00:37:32;;;;;;;6.30;2.20;;;16.60;99.90;;;;;;5034040;28;20026;-84
2021/09/24 00:39:58;;;;;;;5.93;2.38;;;16.60;99.90;;;;;;5024535;28;20515;-83
2021/09/24 00:42:24;;;;;;;7.13;2.50;;;16.60;99.90;;;;;;5027221;28;20028;-83
2021/09/24 00:44:52;;;;;;;5.30;2.15;;;16.60;99.90;;;;;;5031497;28;20030;-83
2021/09/24 00:47:20;;;;;;;6.68;2.15;;;16.60;99.90;;;;;;5021070;28;20033;-83
2021/09/24 00:49:47;;;;;;;6.60;2.10;;;16.50;99.90;;;;;;5032192;28;20013;-82
2021/09/24 00:52:14;;;;;;;6.13;1.80;;;16.50;99.90;;;;;;5026313;28;20484;-83
2021/09/24 00:54:40;;;;;;;5.20;1.63;;;16.50;99.90;;;;;;5024973;28;20053;-83
2021/09/24 00:57:07;;;;;;;4.07;1.70;;;16.50;99.90;;;;;;5033496;28;20036;-83
2021/09/24 00:59:34;;;;;;;5.80;1.90;;;16.50;99.90;;;;;;5020418;28;20427;-82
2021/09/24 01:02:00;;;;;;;5.05;1.90;;;16.50;99.90;;;;;;5030382;28;20113;-84
2021/09/24 01:04:26;;;;;;;5.85;1.80;;;16.50;99.90;;;;;;5045524;28;20116;-83
2021/09/24 01:06:52;;;;;;;5.28;2.03;;;16.50;99.90;;;;;;5023025;28;20029;-83
2021/09/24 01:09:18;;;;;;;6.13;1.95;;;16.50;99.90;;;;;;5033716;28;20410;-82
2021/09/24 01:11:44;;;;;;;4.88;2.10;;;16.50;99.90;;;;;;5021268;28;20025;-83
2021/09/24 01:14:10;;;;;;;5.38;1.70;;;16.50;99.90;;;;;;5029064;28;20030;-84
2021/09/24 01:16:35;;;;;;;3.92;2.00;;;16.50;99.90;;;;;;5028558;28;20021;-83
2021/09/24 01:19:01;;;;;;;6.13;1.98;;;16.50;99.90;;;;;;5018212;28;20057;-82
2021/09/24 01:21:27;;;;;;;3.60;1.77;;;16.50;99.90;;;;;;5030079;28;20040;-83
2021/09/24 01:23:53;;;;;;;6.03;2.45;;;16.50;99.90;;;;;;5019571;28;20040;-83
2021/09/24 01:26:19;;;;;;;7.10;2.42;;;16.50;99.90;;;;;;5024105;28;20081;-83
2021/09/24 01:28:45;;;;;;;5.13;2.50;;;16.40;99.90;;;;;;5026519;28;20128;-83
2021/09/24 01:31:12;;;;;;;6.53;2.17;;;16.40;99.90;;;;;;5016661;28;20030;-83
2021/09/24 01:33:46;;;;;;;7.68;2.80;;;16.40;99.90;;;;;;5029172;28;20018;-83
2021/09/24 01:36:12;;;;;;;6.45;2.63;;;16.40;99.90;;;;;;5021196;28;20492;-83
2021/09/24 01:38:38;;;;;;;4.82;2.13;;;16.40;99.90;;;;;;5022628;28;20018;-83
2021/09/24 01:41:06;;;;;;;5.78;2.10;;;16.40;99.90;;;;;;5028978;28;20028;-83
2021/09/24 01:43:33;;;;;;;7.88;2.58;;;16.40;99.90;;;;;;5016678;28;20040;-83
2021/09/24 01:45:59;;;;;;;4.65;2.20;;;16.30;99.90;;;;;;5027353;28;20531;-83
2021/09/24 01:48:24;;;;;;;7.72;3.10;;;16.30;99.90;;;;;;5024490;28;20025;-82
2021/09/24 01:50:50;;;;;;;7.75;3.15;;;16.30;99.90;;;;;;5019220;28;20073;-83
2021/09/24 01:53:16;;;;;;;7.95;2.70;;;16.30;99.90;;;;;;5029519;28;20025;-83
2021/09/24 01:55:42;;;;;;;5.45;2.47;;;16.30;99.90;;;;;;5017314;28;20013;-83
2021/09/24 01:58:07;;;;;;;6.45;2.25;;;16.30;99.90;;;;;;5025069;28;20044;-83
2021/09/24 02:00:33;;;;;;;7.15;2.75;;;16.30;99.90;;;;;;5024246;28;20124;-83
2021/09/24 02:02:59;;;;;;;6.22;2.97;;;16.30;99.90;;;;;;5019040;28;20052;-83
2021/09/24 02:05:25;;;;;;;6.85;3.00;;;16.20;99.90;;;;;;5028895;28;20034;-83
2021/09/24 02:07:52;;;;;;;5.22;2.65;;;16.20;99.90;;;;;;5001992;28;20045;-84
2021/09/24 02:10:18;;;;;;;4.97;2.42;;;16.20;99.90;;;;;;5023229;28;20024;-83
2021/09/24 02:12:43;;;;;;;7.50;2.38;;;16.20;99.90;;;;;;5025940;28;20112;-84
2021/09/24 02:15:10;;;;;;;8.38;3.25;;;16.20;99.90;;;;;;5016309;28;20026;-83
2021/09/24 02:17:36;;;;;;;7.82;2.83;;;16.30;99.90;;;;;;5017573;28;20021;-83
2021/09/24 02:20:02;;;;;;;7.35;3.13;;;16.30;99.90;;;;;;5028721;28;20450;-83
2021/09/24 02:22:28;;;;;;;6.80;2.80;;;16.20;99.90;;;;;;5026624;28;20553;-83
2021/09/24 02:24:53;;;;;;;7.28;2.72;;;16.20;99.90;;;;;;5021539;28;20112;-83
2021/09/24 02:27:19;;;;;;;5.65;2.90;;;16.20;99.90;;;;;;5032260;28;20029;-83
2021/09/24 02:29:45;;;;;;;4.95;2.65;;;16.20;99.90;;;;;;5020851;28;20029;-83
2021/09/24 02:32:11;;;;;;;5.82;2.45;;;16.20;99.90;;;;;;5035911;28;20032;-84
2021/09/24 02:34:37;;;;;;;6.45;2.85;;;16.20;99.90;;;;;;5023765;28;20024;-83
2021/09/24 02:37:03;;;;;;;5.35;2.42;;;16.20;99.90;;;;;;5031208;28;20108;-83
2021/09/24 02:39:30;;;;;;;5.47;2.53;;;16.20;99.90;;;;;;5019008;28;20116;-83
2021/09/24 02:41:56;;;;;;;3.90;1.90;;;16.20;99.90;;;;;;5029000;28;20040;-83
2021/09/24 02:44:22;;;;;;;3.47;1.90;;;16.20;99.90;;;;;;5025043;28;20036;-84
2021/09/24 02:46:48;;;;;;;4.88;2.28;;;16.20;99.90;;;;;;5035384;28;20021;-83
2021/09/24 02:49:13;;;;;;;4.30;2.45;;;16.20;99.90;;;;;;5018205;28;20513;-83
2021/09/24 02:51:39;;;;;;;6.85;2.95;;;16.20;99.90;;;;;;5031107;28;20474;-83
2021/09/24 02:54:05;;;;;;;5.22;2.17;;;16.20;99.90;;;;;;5023226;28;20029;-84
2021/09/24 02:56:30;;;;;;;5.47;2.47;;;16.20;99.90;;;;;;5024174;28;20026;-84
2021/09/24 02:58:56;;;;;;;5.43;2.15;;;16.20;99.90;;;;;;5029224;28;20032;-83
2021/09/24 03:01:22;;;;;;;4.50;1.88;;;16.20;99.90;;;;;;5019075;28;20037;-83
2021/09/24 03:03:48;;;;;;;6.68;1.90;;;16.20;99.90;;;;;;5029735;28;20558;-84
2021/09/24 03:06:14;;;;;;;3.97;1.80;;;16.20;99.90;;;;;;5024061;28;20017;-84
2021/09/24 03:08:39;;;;;;;7.88;2.15;;;16.20;99.90;;;;;;5022725;28;20113;-83
2021/09/24 03:11:05;;;;;;;4.70;1.80;;;16.30;99.90;;;;;;5030995;28;20175;-83
2021/09/24 03:13:31;;;;;;;7.20;2.30;;;16.20;99.90;;;;;;5018717;28;20117;-83
2021/09/24 03:15:58;;;;;;;4.80;1.88;;;16.20;99.90;;;;;;5035074;28;20071;-83
2021/09/24 03:18:24;;;;;;;4.80;2.45;;;16.20;99.90;;;;;;5042355;28;20045;-84
2021/09/24 03:20:51;;;;;;;5.07;2.03;;;16.20;99.90;;;;;;5028827;28;20032;-83
2021/09/24 03:23:20;;;;;;;3.65;1.90;;;16.10;99.90;;;;;;5051789;28;20100;-83
2021/09/24 03:25:47;;;;;;;7.15;2.50;;;16.10;99.90;;;;;;5015780;28;20021;-83
2021/09/24 03:28:13;;;;;;;5.20;2.25;;;16.10;99.90;;;;;;5026195;28;20028;-83
2021/09/24 03:30:40;;;;;;;4.30;2.38;;;16.10;99.90;;;;;;5045594;28;20373;-83
2021/09/24 03:33:06;;;;;;;7.80;3.30;;;16.00;99.90;;;;;;5019325;28;20021;-83
2021/09/24 03:35:32;;;;;;;4.82;2.58;;;16.00;99.90;;;;;;5034439;28;20021;-83
2021/09/24 03:37:57;;;;;;;5.30;2.40;;;15.90;99.90;;;;;;5028248;28;20462;-83
2021/09/24 03:40:23;;;;;;;5.40;3.03;;;15.90;99.90;;;;;;5024904;28;20100;-83
2021/09/24 03:42:49;;;;;;;4.90;2.58;;;15.80;99.90;;;;;;5021314;28;20029;-83
2021/09/24 03:45:15;;;;;;;6.60;3.10;;;15.80;99.90;;;;;;5031339;28;20025;-83
2021/09/24 03:47:41;;;;;;;5.65;3.42;;;15.70;99.90;;;;;;5019015;28;20036;-83
2021/09/24 03:50:08;;;;;;;5.43;3.70;;;15.70;99.90;;;;;;5027014;28;20370;-84
2021/09/24 03:52:34;;;;;;;5.55;3.92;;;15.60;99.90;;;;;;5044497;28;20480;-83
2021/09/24 03:55:00;;;;;;;8.77;4.78;;;15.60;99.90;;;;;;5019823;28;20101;-83
2021/09/24 03:57:26;;;;;;;7.35;5.43;;;15.70;99.90;;;;;;5030984;28;20473;-83
2021/09/24 03:59:52;;;;;;;10.05;6.22;;;15.70;99.90;;;;;;5021648;28;20037;-83
2021/09/24 04:02:18;;;;;;;13.25;7.93;;;15.70;99.90;;;;;;5029058;28;20044;-84
2021/09/24 04:04:43;;;;;;;9.07;6.82;;;15.70;99.90;;;;;;5031268;28;20468;-83
2021/09/24 04:07:09;;;;;;;11.20;7.93;;;15.60;99.90;;;;;;5038333;28;20029;-83
2021/09/24 04:09:36;;;;;;;10.07;7.63;;;15.60;99.90;;;;;;5021825;28;20020;-83
2021/09/24 04:12:02;;;;;;;10.65;8.20;;;15.70;99.90;;;;;;5048776;28;20024;-83
2021/09/24 04:14:27;;;;;;;10.55;7.40;;;15.70;99.90;;;;;;5029165;28;20079;-83
2021/09/24 04:16:53;;;;;;;11.38;7.78;;;15.60;99.90;;;;;;5023853;28;20021;-83
2021/09/24 04:19:24;;;;;;;13.10;9.32;;;15.60;99.90;;;;;;5031108;28;20037;-83
2021/09/24 04:21:50;;;;;;;12.48;8.60;;;15.60;99.90;;;;;;5020405;28;20359;-83
2021/09/24 04:24:17;;;;;;;12.05;8.93;;;15.60;99.90;;;;;;5034615;28;20056;-83
2021/09/24 04:26:44;;;;;;;12.52;9.18;;;15.50;99.90;;;;;;5034264;28;20029;-83
2021/09/24 04:29:10;;;;;;;15.63;12.63;;;15.50;99.90;;;;;;5017803;28;20575;-83
2021/09/24 04:31:37;;;;;;;14.95;11.15;;;15.50;99.90;;;;;;5034408;28;20063;-83
2021/09/24 04:34:03;;;;;;;14.90;12.52;;;15.50;99.90;;;;;;5028230;28;20033;-83
2021/09/24 04:36:29;;;;;;;20.50;15.73;;;15.60;99.90;;;;;;5025501;28;20026;-83
2021/09/24 04:38:56;;;;;;;18.85;15.05;;;15.50;99.90;;;;;;5033970;28;20457;-84
2021/09/24 04:41:24;;;;;;;26.35;17.88;;;15.60;99.90;;;;;;5017632;28;20018;-83
2021/09/24 04:43:50;;;;;;;28.85;22.15;;;15.60;99.90;;;;;;5029530;28;20524;-84
2021/09/24 04:46:15;;;;;;;35.10;23.60;;;15.50;99.90;;;;;;5023407;28;20018;-84
2021/09/24 04:48:41;;;;;;;31.40;20.83;;;15.50;99.90;;;;;;5034071;28;20024;-83
2021/09/24 04:51:07;;;;;;;31.48;20.80;;;15.50;99.90;;;;;;5018122;28;20025;-83
2021/09/24 04:53:32;;;;;;;31.52;21.38;;;15.50;99.90;;;;;;5035362;28;20063;-84
2021/09/24 04:55:58;;;;;;;31.48;21.25;;;15.60;99.90;;;;;;5028380;28;20454;-82
2021/09/24 04:58:24;;;;;;;28.65;19.02;;;15.60;99.90;;;;;;5024292;28;20029;-83
2021/09/24 05:00:50;;;;;;;29.05;20.30;;;15.60;99.90;;;;;;5033979;28;20091;-83
2021/09/24 05:03:16;;;;;;;31.30;20.17;;;15.70;99.90;;;;;;5018881;28;20022;-84
2021/09/24 05:05:44;;;;;;;29.83;19.95;;;15.70;99.90;;;;;;5029233;28;20109;-83
2021/09/24 05:08:18;;;;;;;30.67;18.45;;;15.70;99.90;;;;;;5022251;28;20026;-83
2021/09/24 05:10:47;;;;;;;29.08;19.70;;;15.80;99.90;;;;;;5031181;28;20025;-84
2021/09/24 05:13:23;;;;;;;30.15;18.45;;;15.70;99.90;;;;;;5015837;28;20053;-84
2021/09/24 05:15:56;;;;;;;28.05;19.30;;;15.70;99.90;;;;;;5028479;28;20045;-84
2021/09/24 05:18:24;;;;;;;31.23;19.42;;;15.80;99.90;;;;;;5021970;28;20378;-84
2021/09/24 05:20:55;;;;;;;38.15;19.98;;;15.80;99.90;;;;;;5033661;28;20022;-84
2021/09/24 05:23:23;;;;;;;36.55;20.08;;;15.90;99.90;;;;;;5017258;28;20374;-83
2021/09/24 05:25:57;;;;;;;34.47;21.70;;;15.80;99.90;;;;;;5028902;28;20065;-84
2021/09/24 05:28:25;;;;;;;;;;;15.90;99.90;;;;;;5023997;28;20057;-83
2021/09/24 05:30:51;;;;;;;30.20;17.83;;;15.80;99.90;;;;;;5019238;28;19955;-85
2021/09/24 05:33:16;;;;;;;33.25;19.48;;;15.90;99.90;;;;;;5029662;28;20446;-84
2021/09/24 05:35:45;;;;;;;31.95;20.52;;;15.90;99.90;;;;;;5018976;28;20030;-84
2021/09/24 05:38:10;;;;;;;36.85;20.92;;;16.00;99.90;;;;;;5008540;28;20026;-84
2021/09/24 05:40:36;;;;;;;33.25;20.20;;;16.00;99.90;;;;;;5025164;28;20037;-83
2021/09/24 05:43:02;;;;;;;36.80;21.63;;;16.00;99.90;;;;;;5033140;28;20053;-83
2021/09/24 05:45:28;;;;;;;36.05;21.23;;;16.10;99.90;;;;;;5016730;28;20033;-83
2021/09/24 05:47:54;;;;;;;35.80;21.25;;;16.10;99.90;;;;;;5026857;28;20036;-84
2021/09/24 05:50:23;;;;;;;39.00;21.95;;;16.10;99.90;;;;;;5024198;28;20025;-84
2021/09/24 05:52:51;;;;;;;39.45;22.15;;;16.20;99.90;;;;;;5019494;28;20028;-84
2021/09/24 05:55:20;;;;;;;39.47;21.98;;;16.20;99.90;;;;;;5029462;28;20557;-84
2021/09/24 05:57:51;;;;;;;42.25;25.17;;;16.20;99.90;;;;;;5017738;28;20021;-84
2021/09/24 06:00:19;;;;;;;39.88;25.58;;;16.30;99.90;;;;;;5032721;28;20033;-84
2021/09/24 06:02:47;;;;;;;36.05;23.13;;;16.30;99.90;;;;;;5021019;28;20030;-84
2021/09/24 06:05:13;;;;;;;38.45;24.67;;;16.30;99.90;;;;;;5029652;28;20375;-84
2021/09/24 06:07:40;;;;;;;39.85;24.30;;;16.30;99.90;;;;;;5028542;28;20029;-84
2021/09/24 06:10:09;;;;;;;47.53;27.73;;;16.40;99.90;;;;;;5021865;28;20017;-85
2021/09/24 06:12:37;;;;;;;44.08;27.83;;;16.40;99.90;;;;;;5021035;28;20548;-85
2021/09/24 06:15:07;;;;;;;43.00;25.92;;;16.40;99.90;;;;;;5028351;28;20060;-84
2021/09/24 06:17:34;;;;;;;47.15;27.33;;;16.40;99.90;;;;;;5030132;28;20355;-84
2021/09/24 06:20:00;;;;;;;44.55;25.52;;;16.40;99.90;;;;;;5039996;28;20025;-84
2021/09/24 06:22:27;;;;;;;46.38;28.00;;;16.40;99.90;;;;;;5036203;28;20024;-85
2021/09/24 06:24:53;;;;;;;55.58;31.88;;;16.50;99.90;;;;;;5039308;28;20033;-84
2021/09/24 06:27:19;;;;;;;55.30;31.75;;;16.50;99.90;;;;;;5032057;28;20028;-83
2021/09/24 06:29:50;;;;;;;47.45;28.27;;;16.50;99.90;;;;;;5004060;28;20477;-84
2021/09/24 06:32:17;;;;;;;47.25;29.52;;;16.50;99.90;;;;;;5026535;28;20028;-83
2021/09/24 06:34:45;;;;;;;48.28;28.65;;;16.50;99.90;;;;;;5028210;28;20108;-84
2021/09/24 06:37:17;;;;;;;46.85;29.02;;;16.50;99.90;;;;;;5035311;28;20468;-83
2021/09/24 06:39:43;;;;;;;45.65;28.63;;;16.50;99.90;;;;;;5020065;28;20515;-83
2021/09/24 06:42:12;;;;;;;45.28;28.58;;;16.50;99.90;;;;;;5021448;28;20159;-83
2021/09/24 06:44:41;;;;;;;38.17;24.98;;;16.50;99.90;;;;;;5025229;28;20025;-83
2021/09/24 06:47:07;;;;;;;46.97;28.65;;;16.50;99.90;;;;;;5043809;28;20039;-83
2021/09/24 06:49:45;;;;;;;49.83;31.38;;;16.50;99.90;;;;;;5044656;28;20025;-84
2021/09/24 06:52:19;;;;;;;49.75;30.92;;;16.60;99.90;;;;;;5023801;28;20112;-84
2021/09/24 06:54:46;;;;;;;46.05;28.98;;;16.50;99.90;;;;;;5040031;28;20037;-84
2021/09/24 06:57:15;;;;;;;46.70;28.33;;;16.50;99.90;;;;;;5049306;28;20020;-84
2021/09/24 06:59:51;;;;;;;40.63;25.40;;;16.60;99.90;;;;;;5019239;28;20034;-83
2021/09/24 07:02:23;;;;;;;38.10;24.33;;;16.60;99.90;;;;;;5044025;28;20021;-84
2021/09/24 07:04:52;;;;;;;34.17;22.13;;;16.60;99.90;;;;;;5046914;28;20032;-84
2021/09/24 07:07:24;;;;;;;40.30;25.27;;;16.60;99.90;;;;;;5002273;28;20030;-84
2021/09/24 07:09:54;;;;;;;44.35;27.77;;;16.60;99.90;;;;;;5028615;28;20470;-85
2021/09/24 07:12:20;;;;;;;44.78;27.83;;;16.60;99.90;;;;;;5042692;28;20206;-84
2021/09/24 07:14:51;;;;;;;37.35;23.98;;;16.70;99.90;;;;;;5039830;28;20163;-84
2021/09/24 07:17:23;;;;;;;40.42;24.48;;;16.60;99.90;;;;;;5049479;28;20029;-84
2021/09/24 07:19:49;;;;;;;38.33;24.63;;;16.70;99.90;;;;;;5020139;28;20037;-83
2021/09/24 07:22:17;;;;;;;40.85;26.10;;;16.70;99.90;;;;;;5028800;28;20521;-83
2021/09/24 07:24:54;;;;;;;39.67;25.60;;;16.70;99.90;;;;;;5034894;28;20032;-84
2021/09/24 07:27:23;;;;;;;41.72;25.70;;;16.80;99.90;;;;;;5018689;28;20063;-83
2021/09/24 07:29:54;;;;;;;44.15;28.90;;;16.80;99.90;;;;;;5031687;28;20092;-84
2021/09/24 07:32:20;;;;;;;47.42;28.35;;;16.90;99.90;;;;;;5021954;28;20025;-83
2021/09/24 07:34:49;;;;;;;50.20;31.42;;;16.90;99.90;;;;;;5016238;28;20025;-83
2021/09/24 07:37:25;;;;;;;40.47;26.33;;;16.90;99.90;;;;;;5018810;28;20029;-84
2021/09/24 07:39:56;;;;;;;41.30;24.95;;;16.90;99.90;;;;;;5024390;28;20021;-83
2021/09/24 07:42:31;;;;;;;50.55;29.08;;;17.00;99.90;;;;;;5044347;28;20071;-84
2021/09/24 07:44:57;;;;;;;44.85;27.35;;;17.10;99.90;;;;;;5035719;28;20021;-83
2021/09/24 07:47:23;;;;;;;48.42;28.15;;;17.10;99.90;;;;;;5029179;28;20034;-85
2021/09/24 07:49:51;;;;;;;49.08;28.98;;;17.10;99.90;;;;;;5028575;28;20043;-83
2021/09/24 07:52:20;;;;;;;59.25;34.30;;;17.10;99.90;;;;;;5027542;28;20017;-84
2021/09/24 07:54:45;;;;;;;54.60;33.03;;;17.10;99.90;;;;;;5025303;28;20029;-84
2021/09/24 07:57:11;;;;;;;59.17;33.47;;;17.10;99.90;;;;;;5018548;28;20025;-84
2021/09/24 07:59:42;;;;;;;54.83;30.17;;;17.10;99.90;;;;;;5039509;28;20108;-84
2021/09/24 08:02:12;;;;;;;51.95;29.77;;;17.10;99.90;;;;;;5014371;28;20147;-84
2021/09/24 08:04:38;;;;;;;46.85;26.33;;;17.20;99.90;;;;;;5027796;28;20025;-85
2021/09/24 08:07:08;;;;;;;63.80;35.50;;;17.30;99.90;;;;;;5020412;28;20044;-84
2021/09/24 08:09:34;;;;;;;55.35;31.83;;;17.30;99.90;;;;;;5032141;28;20025;-83
2021/09/24 08:12:00;;;;;;;60.08;33.97;;;17.30;99.90;;;;;;5023061;28;20179;-84
2021/09/24 08:14:29;;;;;;;61.78;32.55;;;17.30;99.90;;;;;;5025144;28;20028;-83
2021/09/24 08:16:55;;;;;;;66.30;35.33;;;17.40;99.90;;;;;;5030359;28;20111;-84
2021/09/24 08:19:21;;;;;;;58.78;31.15;;;17.40;99.90;;;;;;5018980;28;20489;-84
2021/09/24 08:21:48;;;;;;;63.30;33.38;;;17.40;99.90;;;;;;5030644;28;20029;-84
2021/09/24 08:24:14;;;;;;;68.82;36.13;;;17.50;99.90;;;;;;5024933;28;20025;-84
2021/09/24 08:26:41;;;;;;;64.97;35.03;;;17.50;99.90;;;;;;5023519;28;20060;-84
2021/09/24 08:29:07;;;;;;;69.28;37.05;;;17.60;99.90;;;;;;5026427;28;20028;-84
2021/09/24 08:31:33;;;;;;;61.50;32.58;;;17.70;99.90;;;;;;5031525;28;20040;-85
2021/09/24 08:33:59;;;;;;;52.70;31.08;;;17.80;99.90;;;;;;5022457;28;20031;-85
2021/09/24 08:36:33;;;;;;;60.85;33.22;;;18.00;99.90;;;;;;5025494;28;20013;-84
2021/09/24 08:39:01;;;;;;;58.92;33.78;;;18.10;99.90;;;;;;5030677;28;20476;-84
2021/09/24 08:41:29;;;;;;;64.93;35.88;;;18.10;99.90;;;;;;5049625;28;20020;-84
2021/09/24 08:43:56;;;;;;;69.72;38.15;;;18.20;99.90;;;;;;4998689;28;20086;-84
2021/09/24 08:46:22;;;;;;;57.13;34.42;;;18.10;99.90;;;;;;4998201;28;20036;-84
2021/09/24 08:48:49;;;;;;;59.03;34.88;;;18.10;99.90;;;;;;5028757;28;20021;-84
2021/09/24 08:51:15;;;;;;;54.25;33.58;;;18.20;99.90;;;;;;5017917;28;20045;-83
2021/09/24 08:53:41;;;;;;;55.17;31.58;;;18.20;99.90;;;;;;5030846;28;20531;-84
2021/09/24 08:56:10;;;;;;;50.10;28.85;;;18.30;99.90;;;;;;5029432;28;20025;-85
2021/09/24 08:58:36;;;;;;;52.47;30.42;;;18.40;99.90;;;;;;5018555;28;20093;-84
2021/09/24 09:01:03;;;;;;;56.58;32.50;;;18.50;99.90;;;;;;5030203;28;20062;-83
2021/09/24 09:03:42;;;;;;;59.17;33.92;;;18.60;99.90;;;;;;5017979;28;20052;-84
2021/09/24 09:06:09;;;;;;;50.15;31.58;;;18.70;99.90;;;;;;5010290;28;20079;-84
2021/09/24 09:08:37;;;;;;;48.58;30.88;;;18.80;99.90;;;;;;5026219;28;20031;-85
2021/09/24 09:11:14;;;;;;;51.17;29.65;;;18.80;99.90;;;;;;5019759;28;20029;-85
2021/09/24 09:13:53;;;;;;;46.50;29.70;;;18.90;99.90;;;;;;5036666;28;20104;-84
2021/09/24 09:16:25;;;;;;;45.33;31.23;;;19.00;99.90;;;;;;5025378;28;20105;-84
2021/09/24 09:19:15;;;;;;;39.97;29.33;;;19.10;99.90;;;;;;5045970;28;20049;-85
2021/09/24 09:21:43;;;;;;;39.38;28.65;;;19.30;99.90;;;;;;5035329;28;20025;-85
2021/09/24 09:24:22;;;;;;;41.30;28.42;;;19.40;99.90;;;;;;5044274;28;20056;-83
2021/09/24 09:27:22;;;;;;;40.42;28.15;;;19.50;99.90;;;;;;5012023;28;20390;-84
2021/09/24 09:30:12;;;;;;;39.40;27.10;;;19.70;99.90;;;;;;5019642;28;20029;-85
2021/09/24 09:33:17;;;;;;;36.65;26.20;;;20.00;99.90;;;;;;5037689;28;20064;-85
2021/09/24 09:35:53;;;;;;;38.58;27.38;;;20.30;99.90;;;;;;5024323;28;20036;-86
2021/09/24 09:38:43;;;;;;;37.40;25.58;;;20.80;99.90;;;;;;5023614;28;20040;-86
2021/09/24 09:41:17;;;;;;;36.10;24.45;;;21.10;99.90;;;;;;5018354;28;20083;-83
2021/09/24 09:44:05;;;;;;;34.95;26.15;;;21.10;99.90;;;;;;5048068;28;20025;-83
2021/09/24 09:46:35;;;;;;;30.48;22.02;;;20.80;99.90;;;;;;5041473;28;20033;-83
2021/09/24 09:49:04;;;;;;;23.95;20.10;;;20.50;99.90;;;;;;5029712;28;20484;-84
2021/09/24 09:51:31;;;;;;;27.98;20.80;;;20.40;99.90;;;;;;5018011;28;20983;-83
2021/09/24 09:53:58;;;;;;;25.13;20.10;;;20.30;99.90;;;;;;5027775;28;20029;-83
2021/09/24 09:56:35;;;;;;;27.27;20.65;;;20.30;99.90;;;;;;4991797;28;20267;-85
2021/09/24 09:59:31;;;;;;;26.83;20.75;;;20.40;99.90;;;;;;5018759;28;20036;-83
2021/09/24 10:02:16;;;;;;;25.70;19.45;;;20.60;99.90;;;;;;5013802;28;20122;-83
2021/09/24 10:04:51;;;;;;;24.13;17.70;;;20.60;99.90;;;;;;5021224;28;20033;-84
2021/09/24 10:07:28;;;;;;;21.55;16.58;;;20.70;99.90;;;;;;5031240;28;20067;-83
2021/09/24 10:10:14;;;;;;;19.65;17.00;;;20.70;99.90;;;;;;5030376;28;20415;-84
2021/09/24 10:12:42;;;;;;;20.63;16.83;;;20.70;99.90;;;;;;5026228;28;20469;-84
2021/09/24 10:15:09;;;;;;;21.00;16.83;;;20.70;99.90;;;;;;5030148;28;20111;-84
2021/09/24 10:17:35;;;;;;;20.52;15.40;;;20.80;99.90;;;;;;5016726;28;20465;-82
2021/09/24 10:20:01;;;;;;;17.05;15.25;;;21.00;99.90;;;;;;5026340;28;20137;-84
2021/09/24 10:22:27;;;;;;;20.15;16.88;;;21.50;99.90;;;;;;5024319;28;20032;-84
2021/09/24 10:24:54;;;;;;;19.17;15.40;;;21.70;99.90;;;;;;5019597;28;20021;-85
2021/09/24 10:27:32;;;;;;;16.25;12.88;;;22.10;99.90;;;;;;5013553;28;20037;-84
2021/09/24 10:30:28;;;;;;;16.63;14.32;;;22.90;99.90;;;;;;5020472;28;20127;-84
2021/09/24 10:33:11;;;;;;;16.27;12.38;;;23.50;99.90;;;;;;5019191;28;20030;-83
2021/09/24 10:35:55;;;;;;;11.02;9.85;;;24.00;99.90;;;;;;5033314;28;20033;-84
2021/09/24 10:38:32;;;;;;;13.00;11.10;;;24.10;99.90;;;;;;5007320;28;20091;-84
2021/09/24 10:41:10;;;;;;;11.63;9.10;;;24.30;99.90;;;;;;5045832;28;20031;-83
2021/09/24 10:43:50;;;;;;;13.05;11.57;;;24.50;99.90;;;;;;5013498;28;20072;-83
2021/09/24 10:46:25;;;;;;;13.10;10.45;;;24.30;99.90;;;;;;5022538;28;20026;-84
2021/09/24 10:49:19;;;;;;;10.10;9.05;;;23.60;99.90;;;;;;5012866;28;20037;-83
2021/09/24 10:51:57;;;;;;;13.30;10.55;;;23.40;99.90;;;;;;5013002;28;20029;-83
2021/09/24 10:54:25;;;;;;;11.57;8.82;;;23.20;99.90;;;;;;5023081;28;20044;-84
2021/09/24 10:57:05;;;;;;;15.35;11.00;;;23.10;99.90;;;;;;5021494;28;20030;-84
2021/09/24 10:59:33;;;;;;;15.35;11.68;;;23.20;99.90;;;;;;5015841;28;20037;-84
2021/09/24 11:02:00;;;;;;;12.38;10.40;;;23.00;99.90;;;;;;5010230;28;20191;-85
2021/09/24 11:04:43;;;;;;;12.48;11.02;;;22.60;99.90;;;;;;5041086;28;20381;-84
2021/09/24 11:07:10;;;;;;;13.07;10.82;;;22.30;99.90;;;;;;5032929;28;20061;-85
2021/09/24 11:09:57;;;;;;;14.32;11.40;;;22.20;99.90;;;;;;5015589;28;20393;-83
2021/09/24 11:12:25;;;;;;;14.60;11.40;;;22.40;99.90;;;;;;5040468;28;20072;-84
2021/09/24 11:15:13;;;;;;;13.98;11.93;;;22.80;99.90;;;;;;4991004;28;20098;-83
2021/09/24 11:17:49;;;;;;;13.30;11.65;;;23.00;99.90;;;;;;5020125;28;20040;-85
2021/09/24 11:20:24;;;;;;;12.93;10.70;;;22.80;99.90;;;;;;5038883;28;20056;-85
2021/09/24 11:22:53;;;;;;;17.85;12.60;;;22.70;99.90;;;;;;5019361;28;20494;-85
2021/09/24 11:25:21;;;;;;;14.73;13.15;;;22.50;99.90;;;;;;5029114;28;20032;-84
2021/09/24 11:27:49;;;;;;;15.00;12.55;;;22.30;99.90;;;;;;5017910;28;20017;-85
2021/09/24 11:30:18;;;;;;;14.80;12.65;;;22.20;99.90;;;;;;5023781;28;20028;-85
2021/09/24 11:32:54;;;;;;;15.43;13.02;;;22.50;99.90;;;;;;5025528;28;20442;-85
2021/09/24 11:35:30;;;;;;;15.90;11.15;;;22.90;99.90;;;;;;5031863;28;20037;-85
2021/09/24 11:38:35;;;;;;;14.55;12.73;;;23.50;99.90;;;;;;5018859;28;20175;-85
2021/09/24 11:41:07;;;;;;;12.75;11.30;;;23.50;99.90;;;;;;4934952;28;20079;-85
2021/09/24 11:43:38;;;;;;;12.52;11.20;;;23.20;99.90;;;;;;4937211;28;20490;-85
2021/09/24 11:46:25;;;;;;;14.40;12.52;;;22.90;99.90;;;;;;5020538;28;20037;-84
2021/09/24 11:48:53;;;;;;;13.15;11.55;;;22.90;99.90;;;;;;5026840;28;20070;-85
2021/09/24 11:51:24;;;;;;;17.20;14.85;;;23.10;99.90;;;;;;5031581;28;20033;-84
2021/09/24 11:54:01;;;;;;;20.48;15.50;;;23.10;99.90;;;;;;5013443;28;20021;-84
2021/09/24 11:56:41;;;;;;;17.35;15.50;;;22.70;99.90;;;;;;5012451;28;20373;-84
2021/09/24 11:59:14;;;;;;;17.73;15.90;;;22.30;99.90;;;;;;5046724;28;20500;-84
2021/09/24 12:01:44;;;;;;;19.17;16.75;;;22.10;99.90;;;;;;4997147;28;20588;-84
2021/09/24 12:04:13;;;;;;;21.42;16.63;;;22.00;99.90;;;;;;5021951;28;20036;-84
2021/09/24 12:06:42;;;;;;;18.15;16.25;;;22.00;99.90;;;;;;5003176;28;20037;-84
2021/09/24 12:09:23;;;;;;;17.30;14.95;;;22.10;99.90;;;;;;5024832;28;20553;-84
2021/09/24 12:11:56;;;;;;;17.42;15.63;;;22.70;99.90;;;;;;5012199;28;20036;-84
2021/09/24 12:14:25;;;;;;;19.77;17.65;;;23.50;99.90;;;;;;5021184;28;20029;-85
2021/09/24 12:16:59;;;;;;;16.27;14.57;;;23.80;99.90;;;;;;5016199;28;20113;-86
2021/09/24 12:19:32;;;;;;;13.65;12.25;;;23.70;99.90;;;;;;5003504;28;20095;-84
2021/09/24 12:22:11;;;;;;;14.98;11.68;;;23.90;99.90;;;;;;5006523;28;20033;-85
2021/09/24 12:24:40;;;;;;;12.10;10.57;;;24.40;99.90;;;;;;5035700;28;20083;-84
2021/09/24 12:27:31;;;;;;;13.07;11.68;;;24.20;99.90;;;;;;5019567;28;20022;-85
2021/09/24 12:30:26;;;;;;;13.27;11.75;;;23.90;99.90;;;;;;5021985;28;20021;-84
2021/09/24 12:33:11;;;;;;;11.85;10.43;;;23.40;99.90;;;;;;5022049;28;20022;-84
2021/09/24 12:35:41;;;;;;;10.32;8.95;;;23.00;99.90;;;;;;5035574;28;20033;-84
2021/09/24 12:38:30;;;;;;;10.85;9.73;;;22.80;99.90;;;;;;5011401;28;20517;-84
2021/09/24 12:41:36;;;;;;;9.15;7.70;;;22.60;99.90;;;;;;5047998;28;20052;-84
2021/09/24 12:44:07;;;;;;;11.60;10.02;;;22.30;99.90;;;;;;5023025;28;20508;-84
2021/09/24 12:46:49;;;;;;;10.07;8.70;;;22.20;99.90;;;;;;5024063;28;20033;-84